createdAt,value
2019-03-26T03:07:23.173Z,58.1
2019-03-26T03:08:12.802Z,58.1
2019-03-26T03:09:03.615Z,58.1
2019-03-26T03:09:53.070Z,58.1
2019-03-26T03:10:43.408Z,58.1
2019-03-26T03:11:33.738Z,58.1
2019-03-26T03:12:23.231Z,58
2019-03-26T03:13:13.878Z,58
2019-03-26T03:14:03.680Z,58
2019-03-26T03:14:53.746Z,58
2019-03-26T03:15:43.798Z,58
2019-03-26T03:16:33.812Z,57.9
2019-03-26T03:17:23.594Z,57.9
2019-03-26T03:18:13.695Z,57.9
2019-03-26T03:19:04.293Z,57.9
2019-03-26T03:19:54.380Z,57.9
2019-03-26T03:20:43.845Z,57.9
2019-03-26T03:21:34.175Z,57.9
2019-03-26T03:22:24.024Z,57.9
2019-03-26T03:23:14.302Z,57.9
2019-03-26T03:24:04.500Z,57.9
2019-03-26T03:24:53.954Z,57.9
2019-03-26T03:25:44.490Z,57.9
2019-03-26T03:26:34.696Z,57.9
2019-03-26T03:27:24.683Z,57.8
2019-03-26T03:28:14.713Z,57.8
2019-03-26T03:29:04.767Z,57.8
2019-03-26T03:29:54.807Z,57.8
2019-03-26T03:30:45.256Z,57.8
2019-03-26T03:32:25.526Z,57.8
2019-03-26T03:33:15.465Z,57.8
2019-03-26T03:37:25.701Z,57.7
2019-03-26T03:38:15.119Z,57.7
2019-03-26T03:39:05.896Z,57.7
2019-03-26T03:39:55.686Z,57.7
2019-03-26T03:40:45.571Z,57.7
2019-03-26T03:41:35.929Z,57.7
2019-03-26T03:42:25.743Z,57.6
2019-03-26T03:43:16.154Z,57.7
2019-03-26T03:44:06.351Z,57.7
2019-03-26T03:44:55.650Z,57.6
2019-03-26T03:45:45.937Z,57.6
2019-03-26T03:46:36.277Z,57.6
2019-03-26T03:47:26.058Z,57.6
2019-03-26T03:48:15.899Z,57.6
2019-03-26T03:49:06.563Z,57.6
2019-03-26T03:49:56.530Z,57.6
2019-03-26T03:50:46.704Z,57.6
2019-03-26T03:51:36.497Z,57.6
2019-03-26T03:52:26.712Z,57.6
2019-03-26T03:53:16.645Z,57.6
2019-03-26T03:54:06.900Z,57.6
2019-03-26T03:54:56.342Z,57.5
2019-03-26T03:55:46.963Z,57.5
2019-03-26T03:56:37.035Z,57.5
2019-03-26T03:57:27.080Z,57.5
2019-03-26T03:58:16.877Z,57.5
2019-03-26T03:59:07.263Z,57.5
2019-03-26T03:59:56.401Z,57.4
2019-03-26T04:00:47.438Z,57.4
2019-03-26T04:01:36.849Z,57.4
2019-03-26T04:02:26.357Z,57.4
2019-03-26T04:03:17.295Z,57.4
2019-03-26T04:04:07.313Z,57.4
2019-03-26T04:04:57.661Z,57.4
2019-03-26T04:05:47.705Z,57.4
2019-03-26T04:06:37.177Z,57.4
2019-03-26T04:07:27.850Z,57.4
2019-03-26T04:08:17.907Z,57.4
2019-03-26T04:09:07.410Z,57.4
2019-03-26T04:09:57.727Z,57.4
2019-03-26T04:10:47.536Z,57.3
2019-03-26T04:11:38.137Z,57.3
2019-03-26T04:12:27.605Z,57.3
2019-03-26T04:13:18.237Z,57.3
2019-03-26T04:14:08.311Z,57.3
2019-03-26T04:14:57.835Z,57.3
2019-03-26T04:15:47.647Z,57.3
2019-03-26T04:16:38.281Z,57.3
2019-03-26T04:17:28.618Z,57.3
2019-03-26T04:18:18.620Z,57.3
2019-03-26T04:19:08.586Z,57.3
2019-03-26T04:19:58.304Z,57.3
2019-03-26T04:20:48.806Z,57.3
2019-03-26T04:21:38.866Z,57.2
2019-03-26T04:22:28.915Z,57.2
2019-03-26T04:23:19.009Z,57.2
2019-03-26T04:24:08.905Z,57.2
2019-03-26T04:24:58.668Z,57.2
2019-03-26T04:25:48.901Z,57.1
2019-03-26T04:26:38.923Z,57.2
2019-03-26T04:27:28.722Z,57.1
2019-03-26T04:28:19.349Z,57.1
2019-03-26T04:29:08.881Z,57.1
2019-03-26T04:29:58.950Z,57.1
2019-03-26T04:30:49.357Z,57.1
2019-03-26T04:31:39.628Z,57.1
2019-03-26T04:32:29.638Z,57.1
2019-03-26T04:33:19.446Z,57.1
2019-03-26T04:34:09.474Z,57.1
2019-03-26T04:34:59.528Z,57.1
2019-03-26T04:35:49.941Z,57
2019-03-26T04:36:39.810Z,57.1
2019-03-26T04:37:29.748Z,57
2019-03-26T04:38:19.793Z,57
2019-03-26T04:39:09.884Z,57
2019-03-26T04:40:00.442Z,57
2019-03-26T04:40:49.989Z,57
2019-03-26T04:41:40.334Z,57
2019-03-26T04:42:30.366Z,57
2019-03-26T04:43:23.017Z,57
2019-03-26T04:44:10.513Z,56.9
2019-03-26T04:45:00.458Z,56.9
2019-03-26T04:45:50.597Z,56.9
2019-03-26T04:46:40.648Z,56.9
2019-03-26T04:47:30.159Z,56.9
2019-03-26T04:48:20.241Z,56.9
2019-03-26T04:49:10.830Z,56.9
2019-03-26T04:50:00.559Z,56.9
2019-03-26T04:50:50.402Z,56.9
2019-03-26T04:51:40.453Z,56.9
2019-03-26T04:52:30.788Z,56.9
2019-03-26T04:53:20.868Z,56.9
2019-03-26T04:54:10.917Z,56.9
2019-03-26T04:55:01.320Z,56.8
2019-03-26T04:55:51.395Z,56.8
2019-03-26T04:56:41.377Z,56.8
2019-03-26T04:57:30.888Z,56.8
2019-03-26T04:58:20.727Z,56.8
2019-03-26T04:59:25.953Z,56.8
2019-03-26T05:00:01.065Z,56.8
2019-03-26T05:00:51.417Z,56.7
2019-03-26T05:01:41.457Z,56.7
2019-03-26T05:02:31.571Z,56.7
2019-03-26T05:03:21.888Z,56.7
2019-03-26T05:04:11.966Z,56.7
2019-03-26T05:05:02.105Z,56.7
2019-03-26T05:05:52.090Z,56.7
2019-03-26T05:06:42.436Z,56.6
2019-03-26T05:07:31.881Z,56.6
2019-03-26T05:08:22.252Z,56.6
2019-03-26T05:09:12.032Z,56.6
2019-03-26T05:10:02.367Z,56.6
2019-03-26T05:10:52.991Z,56.6
2019-03-26T05:11:42.215Z,56.6
2019-03-26T05:12:32.617Z,56.6
2019-03-26T05:13:22.318Z,56.6
2019-03-26T05:14:12.427Z,56.6
2019-03-26T05:15:02.804Z,56.6
2019-03-26T05:15:51.698Z,56.6
2019-03-26T05:16:42.296Z,56.5
2019-03-26T05:17:32.619Z,56.5
2019-03-26T05:18:22.741Z,56.5
2019-03-26T05:19:13.017Z,56.5
2019-03-26T05:20:02.621Z,56.5
2019-03-26T05:20:53.221Z,56.4
2019-03-26T05:21:42.648Z,56.4
2019-03-26T05:22:32.739Z,56.4
2019-03-26T05:23:22.796Z,56.4
2019-03-26T05:24:13.115Z,56.4
2019-03-26T05:25:03.639Z,56.4
2019-03-26T05:25:53.528Z,56.4
2019-03-26T05:26:43.290Z,56.4
2019-03-26T05:27:47.482Z,56.4
2019-03-26T05:28:23.638Z,56.4
2019-03-26T05:29:13.180Z,56.3
2019-03-26T05:30:03.474Z,56.3
2019-03-26T05:30:53.591Z,56.3
2019-03-26T05:31:43.996Z,56.3
2019-03-26T05:32:34.005Z,56.3
2019-03-26T05:33:23.803Z,56.3
2019-03-26T05:34:13.878Z,56.3
2019-03-26T05:35:03.970Z,56.3
2019-03-26T05:35:55.511Z,56.3
2019-03-26T05:36:55.400Z,56.3
2019-03-26T05:37:34.378Z,56.3
2019-03-26T05:38:24.428Z,56.2
2019-03-26T05:39:14.223Z,56.2
2019-03-26T05:40:04.288Z,56.2
2019-03-26T05:40:54.047Z,56.2
2019-03-26T05:41:44.412Z,56.2
2019-03-26T05:42:34.174Z,56.1
2019-03-26T05:43:24.876Z,56.1
2019-03-26T05:44:14.847Z,56.1
2019-03-26T05:45:04.922Z,56.1
2019-03-26T05:45:54.674Z,56.1
2019-03-26T05:46:44.742Z,56.1
2019-03-26T05:47:35.073Z,56.1
2019-03-26T05:48:24.577Z,56.1
2019-03-26T05:49:15.217Z,56.1
2019-03-26T05:50:05.287Z,56.1
2019-03-26T05:50:54.320Z,56.1
2019-03-26T05:51:45.123Z,56
2019-03-26T05:52:35.464Z,56
2019-03-26T05:53:25.229Z,56
2019-03-26T05:54:15.614Z,56
2019-03-26T05:55:04.813Z,56
2019-03-26T05:55:55.705Z,56
2019-03-26T05:56:45.751Z,56
2019-03-26T05:57:35.534Z,56
2019-03-26T05:58:25.320Z,55.9
2019-03-26T05:59:15.941Z,55.9
2019-03-26T06:00:06.002Z,55.9
2019-03-26T06:00:55.769Z,55.9
2019-03-26T06:01:45.851Z,55.9
2019-03-26T06:02:35.881Z,55.9
2019-03-26T06:03:25.683Z,55.9
2019-03-26T06:05:22.748Z,55.9
2019-03-26T06:06:13.160Z,55.9
2019-03-26T06:07:09.175Z,55.8
2019-03-26T06:07:53.483Z,55.8
2019-03-26T06:08:43.528Z,55.8
2019-03-26T06:09:33.571Z,55.8
2019-03-26T06:10:23.091Z,55.8
2019-03-26T06:11:13.455Z,55.8
2019-03-26T06:12:03.806Z,55.8
2019-03-26T06:12:54.267Z,55.8
2019-03-26T06:13:44.013Z,55.8
2019-03-26T06:14:33.745Z,55.8
2019-03-26T06:15:23.731Z,55.8
2019-03-26T06:16:14.093Z,55.8
2019-03-26T06:17:03.871Z,55.8
2019-03-26T06:17:57.295Z,55.7
2019-03-26T06:18:43.970Z,55.7
2019-03-26T06:19:33.805Z,55.7
2019-03-26T06:20:24.363Z,55.7
2019-03-26T06:21:14.418Z,55.7
2019-03-26T06:22:03.950Z,55.7
2019-03-26T06:22:54.283Z,55.7
2019-03-26T06:23:44.330Z,55.6
2019-03-26T06:24:34.400Z,55.6
2019-03-26T06:25:24.681Z,55.6
2019-03-26T06:26:13.970Z,55.6
2019-03-26T06:27:04.938Z,55.6
2019-03-26T06:27:54.667Z,55.6
2019-03-26T06:28:43.654Z,55.6
2019-03-26T06:29:34.772Z,55.6
2019-03-26T06:30:24.915Z,55.6
2019-03-26T06:31:14.614Z,55.6
2019-03-26T06:32:04.944Z,55.6
2019-03-26T06:32:54.457Z,55.6
2019-03-26T06:33:45.154Z,55.5
2019-03-26T06:34:35.432Z,55.5
2019-03-26T06:35:24.909Z,55.5
2019-03-26T06:36:15.221Z,55.5
2019-03-26T06:37:19.389Z,55.5
2019-03-26T06:37:55.667Z,55.4
2019-03-26T06:38:45.705Z,55.4
2019-03-26T06:39:35.546Z,55.4
2019-03-26T06:40:25.299Z,55.4
2019-03-26T06:41:15.889Z,55.4
2019-03-26T06:42:05.963Z,55.4
2019-03-26T06:42:56.018Z,55.4
2019-03-26T06:43:45.801Z,55.4
2019-03-26T06:44:36.121Z,55.4
2019-03-26T06:45:26.205Z,55.4
2019-03-26T06:46:16.276Z,55.4
2019-03-26T06:47:06.301Z,55.4
2019-03-26T06:47:56.077Z,55.3
2019-03-26T06:48:45.693Z,55.3
2019-03-26T06:49:36.582Z,55.3
2019-03-26T06:50:26.333Z,55.3
2019-03-26T06:51:16.601Z,55.3
2019-03-26T06:52:06.133Z,55.3
2019-03-26T06:52:56.256Z,55.3
2019-03-26T06:53:46.798Z,55.3
2019-03-26T06:54:36.585Z,55.3
2019-03-26T06:55:26.675Z,55.3
2019-03-26T06:56:16.990Z,55.3
2019-03-26T06:57:05.755Z,55.2
2019-03-26T06:57:57.203Z,55.3
2019-03-26T06:58:47.166Z,55.2
2019-03-26T06:59:36.415Z,55.2
2019-03-26T07:00:26.999Z,55.2
2019-03-26T07:01:16.778Z,55.2
2019-03-26T07:02:07.408Z,55.2
2019-03-26T07:02:57.002Z,55.1
2019-03-26T07:05:38.075Z,55.1
2019-03-26T07:06:13.228Z,55.1
2019-03-26T07:07:03.412Z,55.1
2019-03-26T07:07:53.655Z,55.1
2019-03-26T07:09:12.802Z,55.1
2019-03-26T07:09:33.534Z,55.1
2019-03-26T07:10:24.317Z,55.1
2019-03-26T07:11:13.100Z,55.1
2019-03-26T07:12:03.955Z,55.1
2019-03-26T07:12:53.477Z,55.1
2019-03-26T07:13:43.838Z,55
2019-03-26T07:14:34.375Z,55
2019-03-26T07:15:24.194Z,55
2019-03-26T07:16:14.020Z,55
2019-03-26T07:17:03.863Z,55
2019-03-26T07:17:55.434Z,55
2019-03-26T07:18:43.414Z,55
2019-03-26T07:19:34.027Z,54.9
2019-03-26T07:20:24.206Z,54.9
2019-03-26T07:21:14.477Z,54.9
2019-03-26T07:22:03.909Z,54.9
2019-03-26T07:22:54.711Z,54.9
2019-03-26T07:23:44.778Z,54.9
2019-03-26T07:24:34.610Z,54.9
2019-03-26T07:25:24.819Z,54.9
2019-03-26T07:26:14.301Z,54.9
2019-03-26T07:27:19.441Z,54.9
2019-03-26T07:27:55.101Z,54.9
2019-03-26T07:28:44.916Z,54.9
2019-03-26T07:29:34.709Z,54.8
2019-03-26T07:30:25.151Z,54.9
2019-03-26T07:31:14.906Z,54.8
2019-03-26T07:32:05.199Z,54.8
2019-03-26T07:32:55.286Z,54.8
2019-03-26T07:33:45.007Z,54.8
2019-03-26T07:34:35.196Z,54.8
2019-03-26T07:35:24.822Z,54.8
2019-03-26T07:36:15.211Z,54.8
2019-03-26T07:37:05.554Z,54.8
2019-03-26T07:37:55.653Z,54.8
2019-03-26T07:38:44.919Z,54.8
2019-03-26T07:39:35.256Z,54.7
2019-03-26T07:40:25.214Z,54.7
2019-03-26T07:41:15.576Z,54.7
2019-03-26T07:42:05.652Z,54.7
2019-03-26T07:42:56.033Z,54.7
2019-03-26T07:43:45.743Z,54.7
2019-03-26T07:44:36.075Z,54.7
2019-03-26T07:45:25.966Z,54.7
2019-03-26T07:46:15.641Z,54.6
2019-03-26T07:47:05.990Z,54.6
2019-03-26T07:47:56.045Z,54.6
2019-03-26T07:48:46.441Z,54.6
2019-03-26T07:49:36.155Z,54.6
2019-03-26T07:50:25.681Z,54.6
2019-03-26T07:51:16.272Z,54.6
2019-03-26T07:52:06.690Z,54.6
2019-03-26T07:52:56.686Z,54.6
2019-03-26T07:53:46.556Z,54.6
2019-03-26T07:54:36.630Z,54.6
2019-03-26T07:55:26.943Z,54.6
2019-03-26T07:56:16.742Z,54.6
2019-03-26T07:57:07.085Z,54.5
2019-03-26T07:57:56.783Z,54.5
2019-03-26T07:58:46.567Z,54.5
2019-03-26T07:59:37.175Z,54.5
2019-03-26T08:00:27.237Z,54.5
2019-03-26T08:01:17.042Z,54.5
2019-03-26T08:02:07.140Z,54.4
2019-03-26T08:02:57.134Z,54.4
2019-03-26T08:03:47.217Z,54.4
2019-03-26T08:04:37.532Z,54.4
2019-03-26T08:05:33.542Z,54.4
2019-03-26T08:06:17.699Z,54.4
2019-03-26T08:07:07.447Z,54.4
2019-03-26T08:08:02.700Z,54.4
2019-03-26T08:08:47.315Z,54.4
2019-03-26T08:09:38.724Z,54.4
2019-03-26T08:10:27.539Z,54.4
2019-03-26T08:11:18.047Z,54.4
2019-03-26T08:12:08.113Z,54.4
2019-03-26T08:12:58.081Z,54.3
2019-03-26T08:13:47.812Z,54.3
2019-03-26T08:14:38.233Z,54.3
2019-03-26T08:15:27.967Z,54.3
2019-03-26T08:16:17.725Z,54.3
2019-03-26T08:17:08.447Z,54.3
2019-03-26T08:17:58.490Z,54.3
2019-03-26T08:18:48.016Z,54.3
2019-03-26T08:19:37.875Z,54.3
2019-03-26T08:20:28.500Z,54.3
2019-03-26T08:21:18.829Z,54.3
2019-03-26T08:22:08.801Z,54.3
2019-03-26T08:22:58.578Z,54.2
2019-03-26T08:23:48.124Z,54.2
2019-03-26T08:24:38.514Z,54.2
2019-03-26T08:25:28.556Z,54.2
2019-03-26T08:26:18.701Z,54.2
2019-03-26T08:27:08.679Z,54.2
2019-03-26T08:27:58.756Z,54.2
2019-03-26T08:28:49.020Z,54.1
2019-03-26T08:29:38.604Z,54.1
2019-03-26T08:30:28.668Z,54.1
2019-03-26T08:31:19.006Z,54.1
2019-03-26T08:32:08.790Z,54.1
2019-03-26T08:32:59.108Z,54.1
2019-03-26T08:33:48.898Z,54.1
2019-03-26T08:34:39.238Z,54.1
2019-03-26T08:35:29.035Z,54.1
2019-03-26T08:36:19.070Z,54.1
2019-03-26T08:37:09.448Z,54.1
2019-03-26T08:38:14.903Z,54.1
2019-03-26T08:38:49.270Z,54
2019-03-26T08:39:39.317Z,54.1
2019-03-26T08:40:29.383Z,54
2019-03-26T08:41:19.758Z,54
2019-03-26T08:42:09.243Z,54
2019-03-26T08:42:59.833Z,54
2019-03-26T08:43:49.911Z,54
2019-03-26T08:44:39.685Z,54
2019-03-26T08:45:30.015Z,54
2019-03-26T08:46:20.078Z,53.9
2019-03-26T08:47:09.876Z,53.9
2019-03-26T08:48:00.278Z,53.9
2019-03-26T08:48:50.254Z,53.9
2019-03-26T08:49:39.779Z,53.9
2019-03-26T08:50:30.504Z,53.9
2019-03-26T08:51:20.490Z,53.9
2019-03-26T08:52:10.725Z,53.9
2019-03-26T08:53:00.648Z,53.9
2019-03-26T08:53:50.537Z,53.9
2019-03-26T08:54:40.874Z,53.9
2019-03-26T08:55:30.962Z,53.9
2019-03-26T08:56:21.027Z,53.8
2019-03-26T08:57:10.884Z,53.8
2019-03-26T08:58:00.946Z,53.8
2019-03-26T08:58:51.464Z,53.8
2019-03-26T08:59:41.552Z,53.8
2019-03-26T09:00:35.029Z,53.8
2019-03-26T09:01:21.445Z,53.8
2019-03-26T09:02:11.784Z,53.8
2019-03-26T09:03:01.782Z,53.8
2019-03-26T09:03:51.825Z,53.8
2019-03-26T09:04:41.637Z,53.8
2019-03-26T09:05:31.984Z,53.8
2019-03-26T09:06:22.002Z,53.8
2019-03-26T09:07:15.012Z,53.7
2019-03-26T09:08:01.868Z,53.7
2019-03-26T09:08:51.651Z,53.7
2019-03-26T09:09:43.849Z,53.7
2019-03-26T09:10:32.081Z,53.7
2019-03-26T09:11:22.096Z,53.6
2019-03-26T09:12:12.151Z,53.6
2019-03-26T09:13:02.204Z,53.6
2019-03-26T09:13:52.533Z,53.6
2019-03-26T09:14:42.688Z,53.6
2019-03-26T09:15:32.741Z,53.6
2019-03-26T09:16:22.716Z,53.6
2019-03-26T09:17:12.277Z,53.6
2019-03-26T09:18:02.941Z,53.6
2019-03-26T09:18:52.939Z,53.6
2019-03-26T09:19:42.709Z,53.6
2019-03-26T09:20:33.037Z,53.6
2019-03-26T09:21:22.271Z,53.6
2019-03-26T09:22:13.159Z,53.6
2019-03-26T09:23:02.973Z,53.5
2019-03-26T09:23:53.273Z,53.5
2019-03-26T09:24:43.348Z,53.5
2019-03-26T09:25:33.405Z,53.5
2019-03-26T09:26:23.165Z,53.5
2019-03-26T09:27:12.670Z,53.5
2019-03-26T09:28:03.605Z,53.5
2019-03-26T09:28:53.675Z,53.5
2019-03-26T09:29:43.706Z,53.4
2019-03-26T09:30:33.815Z,53.4
2019-03-26T09:31:23.586Z,53.4
2019-03-26T09:32:13.870Z,53.4
2019-03-26T09:33:03.970Z,53.4
2019-03-26T09:33:53.755Z,53.4
2019-03-26T09:34:43.792Z,53.4
2019-03-26T09:35:34.122Z,53.4
2019-03-26T09:36:23.905Z,53.4
2019-03-26T09:37:13.952Z,53.4
2019-03-26T09:38:03.758Z,53.4
2019-03-26T09:38:54.105Z,53.4
2019-03-26T09:39:44.495Z,53.3
2019-03-26T09:40:34.220Z,53.3
2019-03-26T09:41:24.579Z,53.3
2019-03-26T09:42:14.321Z,53.3
2019-03-26T09:43:04.405Z,53.3
2019-03-26T09:43:54.197Z,53.3
2019-03-26T09:44:43.981Z,53.3
2019-03-26T09:45:34.302Z,53.3
2019-03-26T09:46:24.920Z,53.3
2019-03-26T09:47:20.492Z,53.3
2019-03-26T09:48:04.767Z,53.3
2019-03-26T09:48:54.814Z,53.3
2019-03-26T09:49:44.614Z,53.3
2019-03-26T09:50:34.961Z,53.3
2019-03-26T09:51:25.005Z,53.2
2019-03-26T09:52:14.802Z,53.2
2019-03-26T09:53:05.502Z,53.2
2019-03-26T09:53:54.925Z,53.2
2019-03-26T09:54:45.514Z,53.2
2019-03-26T09:55:35.304Z,53.2
2019-03-26T09:56:35.334Z,53.2
2019-03-26T09:57:15.461Z,53.1
2019-03-26T09:58:05.515Z,53.1
2019-03-26T09:58:55.806Z,53.1
2019-03-26T09:59:45.326Z,53.1
2019-03-26T10:00:36.833Z,53.1
2019-03-26T10:01:26.044Z,53.1
2019-03-26T10:02:15.883Z,53.1
2019-03-26T10:03:06.169Z,53.1
2019-03-26T10:03:56.179Z,53.1
2019-03-26T10:07:25.713Z,53
2019-03-26T10:08:35.238Z,53
2019-03-26T10:09:18.258Z,53
2019-03-26T10:09:54.406Z,53
2019-03-26T10:10:43.006Z,53
2019-03-26T10:11:49.793Z,53
2019-03-26T10:12:26.633Z,53
2019-03-26T10:13:13.256Z,52.9
2019-03-26T10:14:03.216Z,52.9
2019-03-26T10:14:52.847Z,52.9
2019-03-26T10:15:43.493Z,52.9
2019-03-26T10:16:33.469Z,52.9
2019-03-26T10:17:23.327Z,52.9
2019-03-26T10:18:13.330Z,52.9
2019-03-26T10:19:03.464Z,52.9
2019-03-26T10:19:53.240Z,52.9
2019-03-26T10:20:43.572Z,52.9
2019-03-26T10:21:33.620Z,52.9
2019-03-26T10:22:23.699Z,52.9
2019-03-26T10:23:13.990Z,52.9
2019-03-26T10:24:04.069Z,52.9
2019-03-26T10:24:54.100Z,52.8
2019-03-26T10:25:43.875Z,52.8
2019-03-26T10:26:33.943Z,52.8
2019-03-26T10:27:24.071Z,52.8
2019-03-26T10:28:14.112Z,52.8
2019-03-26T10:29:34.244Z,52.8
2019-03-26T10:29:59.142Z,52.8
2019-03-26T10:30:49.737Z,52.8
2019-03-26T10:31:39.737Z,52.8
2019-03-26T10:32:29.792Z,52.8
2019-03-26T10:33:20.099Z,52.8
2019-03-26T10:34:09.894Z,52.8
2019-03-26T10:35:00.354Z,52.8
2019-03-26T10:35:50.127Z,52.7
2019-03-26T10:36:43.232Z,52.7
2019-03-26T10:37:30.432Z,52.7
2019-03-26T10:38:20.557Z,52.7
2019-03-26T10:39:10.532Z,52.7
2019-03-26T10:40:00.564Z,52.7
2019-03-26T10:40:50.706Z,52.7
2019-03-26T10:41:40.439Z,52.7
2019-03-26T10:42:30.824Z,52.6
2019-03-26T10:43:20.931Z,52.6
2019-03-26T10:44:10.090Z,52.6
2019-03-26T10:45:00.829Z,52.6
2019-03-26T10:45:51.029Z,52.6
2019-03-26T10:46:44.380Z,52.6
2019-03-26T10:47:30.887Z,52.6
2019-03-26T10:48:20.951Z,52.6
2019-03-26T10:49:11.206Z,52.6
2019-03-26T10:50:00.836Z,52.6
2019-03-26T10:50:50.872Z,52.6
2019-03-26T10:51:41.579Z,52.6
2019-03-26T10:52:37.893Z,52.6
2019-03-26T10:53:21.327Z,52.5
2019-03-26T10:54:11.086Z,52.5
2019-03-26T10:55:01.427Z,52.5
2019-03-26T10:55:52.055Z,52.5
2019-03-26T10:56:41.848Z,52.5
2019-03-26T10:57:31.886Z,52.5
2019-03-26T10:58:21.951Z,52.4
2019-03-26T10:59:11.734Z,52.4
2019-03-26T11:00:02.037Z,52.4
2019-03-26T11:00:51.876Z,52.4
2019-03-26T11:01:42.183Z,52.4
2019-03-26T11:02:46.934Z,52.4
2019-03-26T11:03:21.789Z,52.4
2019-03-26T11:05:02.171Z,52.4
2019-03-26T11:10:02.778Z,52.3
2019-03-26T11:11:42.350Z,52.3
2019-03-26T11:12:32.690Z,52.3
2019-03-26T11:13:23.080Z,52.3
2019-03-26T11:14:13.113Z,52.3
2019-03-26T11:15:02.744Z,52.3
2019-03-26T11:15:53.237Z,52.3
2019-03-26T11:16:43.011Z,52.3
2019-03-26T11:17:33.324Z,52.3
2019-03-26T11:18:23.105Z,52.3
2019-03-26T11:19:13.161Z,52.3
2019-03-26T11:20:02.870Z,52.3
2019-03-26T11:21:06.842Z,52.3
2019-03-26T11:21:43.742Z,52.2
2019-03-26T11:22:33.724Z,52.2
2019-03-26T11:23:23.207Z,52.2
2019-03-26T11:24:13.929Z,52.2
2019-03-26T11:25:03.350Z,52.2
2019-03-26T11:25:53.590Z,52.2
2019-03-26T11:26:43.735Z,52.2
2019-03-26T11:27:34.300Z,52.1
2019-03-26T11:28:24.164Z,52.1
2019-03-26T11:29:13.631Z,52.1
2019-03-26T11:30:04.395Z,52.1
2019-03-26T11:30:54.009Z,52.1
2019-03-26T11:31:44.101Z,52.1
2019-03-26T11:32:33.693Z,52.1
2019-03-26T11:33:24.506Z,52.1
2019-03-26T11:34:13.987Z,52.1
2019-03-26T11:35:04.641Z,52.1
2019-03-26T11:35:54.701Z,52.1
2019-03-26T11:36:44.448Z,52.1
2019-03-26T11:37:34.613Z,52.1
2019-03-26T11:38:24.513Z,52.1
2019-03-26T11:39:14.378Z,52
2019-03-26T11:40:04.443Z,52
2019-03-26T11:40:54.868Z,52
2019-03-26T11:41:45.183Z,52
2019-03-26T11:42:34.618Z,52
2019-03-26T11:43:25.226Z,52
2019-03-26T11:44:15.303Z,52
2019-03-26T11:49:15.344Z,51.9
2019-03-26T11:50:55.745Z,51.9
2019-03-26T11:51:45.864Z,51.9
2019-03-26T11:52:35.321Z,51.9
2019-03-26T11:53:39.572Z,51.9
2019-03-26T11:54:15.228Z,51.9
2019-03-26T11:55:06.040Z,51.9
2019-03-26T11:56:10.790Z,51.8
2019-03-26T11:56:46.205Z,51.8
2019-03-26T11:57:36.284Z,51.8
2019-03-26T11:58:34.570Z,51.8
2019-03-26T11:59:16.092Z,51.8
2019-03-26T12:00:06.224Z,51.8
2019-03-26T12:00:56.214Z,51.8
2019-03-26T12:01:46.527Z,51.8
2019-03-26T12:02:37.868Z,51.8
2019-03-26T12:03:26.433Z,51.8
2019-03-26T12:04:16.724Z,51.8
2019-03-26T12:06:22.457Z,51.7
2019-03-26T12:07:11.984Z,51.8
2019-03-26T12:08:02.856Z,51.8
2019-03-26T12:08:52.911Z,51.7
2019-03-26T12:09:50.426Z,51.7
2019-03-26T12:10:33.311Z,51.7
2019-03-26T12:11:23.171Z,51.7
2019-03-26T12:12:12.591Z,51.7
2019-03-26T12:13:03.206Z,51.7
2019-03-26T12:13:53.261Z,51.7
2019-03-26T12:14:43.341Z,51.6
2019-03-26T12:15:33.128Z,51.6
2019-03-26T12:16:23.719Z,51.6
2019-03-26T12:17:17.259Z,51.6
2019-03-26T12:18:03.124Z,51.6
2019-03-26T12:18:53.626Z,51.6
2019-03-26T12:19:43.956Z,51.6
2019-03-26T12:20:33.741Z,51.6
2019-03-26T12:21:23.801Z,51.6
2019-03-26T12:22:14.147Z,51.6
2019-03-26T12:23:04.229Z,51.6
2019-03-26T12:23:53.436Z,51.6
2019-03-26T12:24:43.778Z,51.6
2019-03-26T12:25:33.925Z,51.5
2019-03-26T12:26:24.449Z,51.5
2019-03-26T12:27:13.685Z,51.5
2019-03-26T12:28:04.361Z,51.5
2019-03-26T12:28:54.701Z,51.5
2019-03-26T12:29:44.708Z,51.5
2019-03-26T12:30:34.785Z,51.5
2019-03-26T12:31:24.559Z,51.4
2019-03-26T12:32:14.885Z,51.4
2019-03-26T12:33:04.809Z,51.4
2019-03-26T12:33:55.063Z,51.4
2019-03-26T12:34:45.148Z,51.4
2019-03-26T12:35:34.975Z,51.4
2019-03-26T12:36:24.900Z,51.4
2019-03-26T12:37:15.232Z,51.4
2019-03-26T12:38:05.105Z,51.4
2019-03-26T12:38:54.530Z,51.4
2019-03-26T12:40:03.170Z,51.4
2019-03-26T12:40:34.675Z,51.4
2019-03-26T12:41:25.295Z,51.4
2019-03-26T12:42:14.859Z,51.4
2019-03-26T12:43:04.913Z,51.4
2019-03-26T12:43:55.750Z,51.3
2019-03-26T12:44:45.781Z,51.3
2019-03-26T12:45:35.097Z,51.3
2019-03-26T12:46:25.897Z,51.3
2019-03-26T12:47:15.954Z,51.3
2019-03-26T12:48:06.017Z,51.3
2019-03-26T12:48:55.259Z,51.3
2019-03-26T12:49:46.160Z,51.3
2019-03-26T12:50:36.306Z,51.3
2019-03-26T12:51:25.997Z,51.3
2019-03-26T12:52:15.781Z,51.3
2019-03-26T12:53:06.479Z,51.3
2019-03-26T12:53:56.439Z,51.3
2019-03-26T12:54:46.506Z,51.3
2019-03-26T12:55:36.318Z,51.3
2019-03-26T12:56:26.616Z,51.2
2019-03-26T12:57:17.994Z,51.2
2019-03-26T12:58:06.829Z,51.2
2019-03-26T12:58:56.536Z,51.2
2019-03-26T12:59:46.603Z,51.2
2019-03-26T13:00:37.051Z,51.2
2019-03-26T13:01:27.084Z,51.1
2019-03-26T13:02:16.773Z,51.1
2019-03-26T13:03:07.116Z,51.1
2019-03-26T13:03:57.266Z,51.1
2019-03-26T13:04:46.683Z,51.1
2019-03-26T13:05:37.409Z,51.1
2019-03-26T13:06:27.365Z,51.1
2019-03-26T13:07:17.137Z,51.1
2019-03-26T13:08:07.545Z,51.1
2019-03-26T13:08:56.988Z,51.1
2019-03-26T13:09:47.313Z,51.1
2019-03-26T13:10:38.753Z,51.1
2019-03-26T13:11:27.445Z,51.1
2019-03-26T13:12:16.746Z,51.1
2019-03-26T13:13:07.358Z,51.1
2019-03-26T13:13:56.948Z,51
2019-03-26T13:14:46.718Z,51
2019-03-26T13:15:37.185Z,51
2019-03-26T13:16:27.790Z,51
2019-03-26T13:17:18.215Z,51
2019-03-26T13:18:11.573Z,51
2019-03-26T13:18:57.495Z,50.9
2019-03-26T13:19:47.485Z,50.9
2019-03-26T13:20:38.422Z,50.9
2019-03-26T13:21:28.467Z,50.9
2019-03-26T13:22:18.232Z,50.9
2019-03-26T13:23:08.283Z,50.9
2019-03-26T13:23:58.620Z,50.9
2019-03-26T13:24:48.422Z,50.9
2019-03-26T13:25:38.730Z,50.9
2019-03-26T13:26:28.809Z,50.9
2019-03-26T13:27:18.320Z,50.9
2019-03-26T13:28:08.921Z,50.9
2019-03-26T13:28:58.734Z,50.9
2019-03-26T13:29:49.074Z,50.9
2019-03-26T13:30:38.827Z,50.9
2019-03-26T13:31:29.265Z,50.9
2019-03-26T13:32:19.239Z,50.8
2019-03-26T13:33:09.294Z,50.8
2019-03-26T13:33:58.846Z,50.8
2019-03-26T13:34:49.136Z,50.8
2019-03-26T13:35:39.189Z,50.8
2019-03-26T13:36:29.284Z,50.8
2019-03-26T13:37:22.742Z,50.8
2019-03-26T13:38:09.725Z,50.8
2019-03-26T13:38:59.719Z,50.8
2019-03-26T13:39:49.584Z,50.8
2019-03-26T13:40:39.828Z,50.8
2019-03-26T13:41:29.916Z,50.8
2019-03-26T13:42:19.686Z,50.8
2019-03-26T13:43:10.024Z,50.8
2019-03-26T13:44:00.083Z,50.7
2019-03-26T13:44:50.132Z,50.7
2019-03-26T13:45:40.037Z,50.7
2019-03-26T13:46:30.263Z,50.7
2019-03-26T13:47:20.040Z,50.7
2019-03-26T13:48:09.813Z,50.7
2019-03-26T13:49:00.175Z,50.7
2019-03-26T13:49:50.534Z,50.7
2019-03-26T13:50:40.559Z,50.6
2019-03-26T13:51:30.618Z,50.6
2019-03-26T13:52:20.709Z,50.6
2019-03-26T13:53:09.966Z,50.6
2019-03-26T13:54:00.813Z,50.6
2019-03-26T13:54:50.875Z,50.6
2019-03-26T13:55:40.920Z,50.6
2019-03-26T13:56:30.982Z,50.6
2019-03-26T13:57:20.768Z,50.6
2019-03-26T13:58:11.115Z,50.6
2019-03-26T13:59:00.887Z,50.6
2019-03-26T13:59:53.049Z,50.6
2019-03-26T14:00:40.747Z,50.5
2019-03-26T14:01:31.128Z,50.6
2019-03-26T14:02:21.422Z,50.5
2019-03-26T14:03:10.926Z,50.5
2019-03-26T14:04:01.312Z,50.5
2019-03-26T14:04:50.760Z,50.5
2019-03-26T14:07:22.642Z,50.5
2019-03-26T14:08:12.412Z,50.4
2019-03-26T14:09:02.604Z,50.4
2019-03-26T14:09:52.822Z,50.4
2019-03-26T14:10:45.344Z,50.4
2019-03-26T14:11:32.417Z,50.4
2019-03-26T14:12:23.332Z,50.4
2019-03-26T14:13:13.070Z,50.4
2019-03-26T14:14:03.213Z,50.4
2019-03-26T14:14:52.612Z,50.4
2019-03-26T14:15:43.556Z,50.4
2019-03-26T14:16:33.584Z,50.4
2019-03-26T14:17:23.096Z,50.4
2019-03-26T14:18:13.734Z,50.4
2019-03-26T14:19:03.752Z,50.4
2019-03-26T14:19:53.336Z,50.3
2019-03-26T14:20:43.122Z,50.3
2019-03-26T14:21:33.126Z,50.3
2019-03-26T14:22:24.001Z,50.3
2019-03-26T14:23:14.131Z,50.3
2019-03-26T14:24:04.126Z,50.3
2019-03-26T14:24:53.737Z,50.3
2019-03-26T14:25:43.707Z,50.3
2019-03-26T14:26:33.261Z,50.3
2019-03-26T14:27:24.091Z,50.3
2019-03-26T14:28:14.427Z,50.3
2019-03-26T14:29:04.526Z,50.3
2019-03-26T14:29:53.789Z,50.3
2019-03-26T14:30:44.131Z,50.3
2019-03-26T14:31:33.902Z,50.3
2019-03-26T14:32:24.008Z,50.3
2019-03-26T14:33:14.534Z,50.3
2019-03-26T14:34:04.860Z,50.2
2019-03-26T14:34:55.848Z,50.2
2019-03-26T14:35:44.990Z,50.2
2019-03-26T14:36:34.556Z,50.2
2019-03-26T14:37:25.160Z,50.2
2019-03-26T14:38:14.887Z,50.2
2019-03-26T14:39:05.266Z,50.2
2019-03-26T14:39:57.921Z,50.1